createdAt,value
2023-06-29T00:03:07.736Z,4.50
2023-06-29T00:08:10.916Z,4.90
2023-06-29T00:13:12.732Z,5.10
2023-06-29T00:18:19.680Z,5.90
2023-06-29T00:23:21.409Z,5.20
2023-06-29T00:28:23.245Z,5.30
2023-06-29T00:33:25.212Z,5.70
2023-06-29T00:38:27.392Z,5.70
2023-06-29T00:43:29.480Z,5.20
2023-06-29T00:48:31.456Z,5.60
2023-06-29T00:53:33.640Z,5.80
2023-06-29T00:58:36.335Z,6.40
2023-06-29T01:03:39.318Z,6.50
2023-06-29T01:08:46.781Z,6.50
2023-06-29T01:13:51.735Z,6.30
2023-06-29T01:18:55.951Z,6.80
2023-06-29T01:23:59.757Z,6.00
2023-06-29T01:29:01.631Z,6.50
2023-06-29T01:34:03.361Z,6.50
2023-06-29T01:39:16.746Z,6.80
2023-06-29T01:44:19.650Z,8.00
2023-06-29T01:54:23.609Z,7.70
2023-06-29T01:59:26.097Z,7.90
2023-06-29T02:04:28.189Z,8.80
2023-06-29T02:09:30.362Z,8.70
2023-06-29T02:14:32.139Z,7.70
2023-06-29T02:19:33.954Z,8.40
2023-06-29T02:24:35.918Z,7.10
2023-06-29T02:29:38.204Z,6.50
2023-06-29T02:34:40.200Z,6.40
2023-06-29T02:39:42.145Z,6.20
2023-06-29T02:44:44.220Z,5.90
2023-06-29T02:49:46.096Z,5.50
2023-06-29T02:54:48.083Z,5.70
2023-06-29T02:59:49.852Z,5.60
2023-06-29T03:04:52.135Z,5.80
2023-06-29T03:09:53.929Z,5.30
2023-06-29T03:14:55.682Z,5.60
2023-06-29T03:19:57.673Z,6.80
2023-06-29T03:24:59.542Z,6.10
2023-06-29T03:30:01.453Z,6.60
2023-06-29T03:35:04.734Z,7.20
2023-06-29T03:40:08.045Z,5.80
2023-06-29T03:45:10.549Z,5.20
2023-06-29T03:50:12.556Z,4.70
2023-06-29T03:55:14.703Z,4.70
2023-06-29T04:00:17.293Z,4.50
2023-06-29T04:05:19.168Z,5.00
2023-06-29T04:10:21.366Z,4.70
2023-06-29T04:15:23.336Z,5.30
2023-06-29T04:20:25.421Z,5.20
2023-06-29T04:25:27.500Z,5.00
2023-06-29T04:30:29.382Z,4.50
2023-06-29T04:35:31.557Z,5.40
2023-06-29T04:45:35.822Z,4.80
2023-06-29T04:50:38.422Z,4.50
2023-06-29T04:55:40.397Z,4.40
2023-06-29T05:00:42.271Z,4.20
2023-06-29T05:05:45.499Z,4.10
2023-06-29T05:10:47.668Z,3.80
2023-06-29T05:15:49.544Z,3.70
2023-06-29T05:20:51.274Z,3.50
2023-06-29T05:25:53.206Z,3.80
2023-06-29T05:30:55.073Z,3.70
2023-06-29T05:35:56.969Z,4.00
2023-06-29T05:41:01.444Z,3.90
2023-06-29T05:46:04.954Z,3.70
2023-06-29T05:51:07.595Z,3.30
2023-06-29T05:56:09.881Z,3.70
2023-06-29T06:01:12.578Z,3.70
2023-06-29T06:06:14.869Z,3.80
2023-06-29T06:11:16.746Z,3.70
2023-06-29T06:16:19.693Z,3.40
2023-06-29T06:21:21.731Z,3.50
2023-06-29T06:26:23.627Z,3.70
2023-06-29T06:31:33.635Z,3.60
2023-06-29T06:36:37.188Z,3.50
2023-06-29T06:41:39.224Z,3.20
2023-06-29T06:46:41.322Z,3.50
2023-06-29T06:51:43.740Z,3.40
2023-06-29T06:56:45.714Z,3.70
2023-06-29T07:01:48.316Z,3.10
2023-06-29T07:06:50.227Z,3.00
2023-06-29T07:11:52.274Z,2.80
2023-06-29T07:16:55.729Z,3.10
2023-06-29T07:27:02.692Z,2.80
2023-06-29T07:32:05.635Z,3.00
2023-06-29T07:37:08.207Z,2.80
2023-06-29T07:42:10.107Z,2.60
2023-06-29T07:47:12.102Z,2.80
2023-06-29T07:52:14.251Z,2.80
2023-06-29T08:02:21.693Z,2.70
2023-06-29T08:07:24.074Z,3.00
2023-06-29T08:12:26.066Z,2.50
2023-06-29T08:17:30.826Z,2.60
2023-06-29T08:22:32.788Z,2.80
2023-06-29T08:27:36.408Z,2.90
2023-06-29T08:32:38.420Z,3.10
2023-06-29T08:37:40.688Z,3.00
2023-06-29T08:42:43.165Z,2.40
2023-06-29T08:47:51.895Z,2.50
2023-06-29T08:52:55.468Z,2.80
2023-06-29T08:57:57.833Z,2.50
2023-06-29T09:03:00.638Z,2.50
2023-06-29T09:08:03.501Z,2.60
2023-06-29T09:13:06.939Z,2.80
2023-06-29T09:18:09.147Z,2.70
2023-06-29T09:23:13.654Z,2.80
2023-06-29T09:28:15.831Z,2.60
2023-06-29T09:33:19.298Z,3.00
2023-06-29T09:38:21.119Z,2.50
2023-06-29T09:43:28.480Z,2.60
2023-06-29T09:53:37.810Z,3.00
2023-06-29T09:58:40.509Z,2.90
2023-06-29T10:03:42.706Z,3.00
2023-06-29T10:08:50.914Z,2.90
2023-06-29T10:13:55.254Z,2.60
2023-06-29T10:19:04.355Z,2.60
2023-06-29T10:24:07.378Z,2.60
2023-06-29T10:29:10.225Z,2.50
2023-06-29T10:34:14.031Z,2.50
2023-06-29T10:39:41.307Z,2.90
2023-06-29T10:44:47.524Z,2.70
2023-06-29T10:49:57.141Z,2.20
2023-06-29T10:55:13.555Z,2.80
2023-06-29T11:00:16.755Z,2.80
2023-06-29T11:05:20.624Z,2.60
2023-06-29T11:10:23.284Z,2.30
2023-06-29T11:15:28.131Z,2.50
2023-06-29T11:20:30.721Z,2.40
2023-06-29T11:25:33.249Z,2.20
2023-06-29T11:30:40.336Z,2.30
2023-06-29T11:35:44.089Z,2.10
2023-06-29T11:40:46.015Z,2.50
2023-06-29T11:45:49.629Z,2.40
2023-06-29T11:50:51.824Z,2.40
2023-06-29T11:55:55.342Z,2.50
2023-06-29T12:00:57.598Z,2.10
2023-06-29T12:06:01.347Z,2.20
2023-06-29T12:11:04.306Z,2.10
2023-06-29T12:21:18.126Z,2.50
2023-06-29T12:26:21.951Z,2.40
2023-06-29T12:31:30.331Z,2.30
2023-06-29T12:36:33.896Z,2.50
2023-06-29T12:41:36.116Z,2.30
2023-06-29T12:46:38.116Z,2.30
2023-06-29T12:51:40.251Z,2.50
2023-06-29T12:56:42.945Z,2.50
2023-06-29T13:01:45.245Z,2.50
2023-06-29T13:06:47.230Z,2.40
2023-06-29T13:11:49.195Z,2.40
2023-06-29T13:16:51.404Z,2.70
2023-06-29T13:21:56.774Z,2.20
2023-06-29T13:26:59.122Z,2.30
2023-06-29T13:32:01.102Z,2.50
2023-06-29T13:37:03.697Z,2.60
2023-06-29T13:42:10.586Z,2.60
2023-06-29T13:47:18.584Z,2.30
2023-06-29T13:52:20.486Z,2.40
2023-06-29T13:57:23.648Z,2.30
2023-06-29T14:02:28.652Z,2.40
2023-06-29T14:07:30.807Z,2.30
2023-06-29T14:12:33.939Z,2.50
2023-06-29T14:17:36.808Z,2.70
2023-06-29T14:22:39.671Z,2.50
2023-06-29T14:27:42.180Z,2.90
2023-06-29T14:32:44.648Z,2.60
2023-06-29T14:37:46.904Z,3.50
2023-06-29T14:42:48.893Z,2.60
2023-06-29T14:47:50.907Z,2.60
2023-06-29T14:52:52.951Z,2.60
2023-06-29T15:02:56.634Z,2.50
2023-06-29T15:07:58.621Z,2.60
2023-06-29T15:23:04.624Z,2.20
2023-06-29T15:28:09.367Z,2.70
2023-06-29T15:33:11.504Z,2.60
2023-06-29T15:38:14.246Z,2.30
2023-06-29T15:43:18.709Z,2.60
2023-06-29T15:48:21.850Z,2.40
2023-06-29T15:53:24.395Z,2.50
2023-06-29T15:58:27.850Z,3.20
2023-06-29T16:03:29.994Z,2.40
2023-06-29T16:08:32.092Z,2.50
2023-06-29T16:13:34.079Z,2.30
2023-06-29T16:23:38.621Z,2.40
2023-06-29T16:28:40.712Z,2.20
2023-06-29T16:38:46.101Z,2.00
2023-06-29T16:43:53.127Z,2.00
2023-06-29T16:48:57.841Z,1.90
2023-06-29T16:53:59.817Z,2.10
2023-06-29T16:59:02.003Z,2.50
2023-06-29T17:09:06.273Z,2.00
2023-06-29T17:14:08.253Z,2.10
2023-06-29T17:19:11.294Z,2.20
2023-06-29T17:24:13.332Z,2.10
2023-06-29T17:29:15.821Z,1.90
2023-06-29T17:34:18.410Z,1.90
2023-06-29T17:44:24.484Z,2.20
2023-06-29T17:49:27.318Z,2.00
2023-06-29T17:54:29.617Z,2.10
2023-06-29T17:59:31.997Z,2.80
2023-06-29T18:04:34.139Z,2.10
2023-06-29T18:09:36.569Z,2.30
2023-06-29T18:14:38.857Z,1.80
2023-06-29T18:19:40.732Z,2.30
2023-06-29T18:24:42.718Z,2.20
2023-06-29T18:29:45.221Z,2.60
2023-06-29T18:34:48.107Z,11.80
2023-06-29T18:44:53.086Z,5.00
2023-06-29T18:49:56.399Z,2.70
2023-06-29T18:55:01.673Z,5.10
2023-06-29T19:00:04.396Z,8.10
2023-06-29T19:05:08.432Z,5.20
2023-06-29T19:10:12.004Z,4.00
2023-06-29T19:15:14.912Z,4.30
2023-06-29T19:20:18.212Z,2.80
2023-06-29T19:25:20.193Z,2.30
2023-06-29T19:30:22.182Z,2.50
2023-06-29T19:35:24.979Z,2.80
2023-06-29T19:40:28.411Z,4.00
